sensor_id;sensor_type;location;lat;lon;timestamp;temperature;humidity
5631;DHT22;2837;50.990;7.124;2023-07-13T05:05:26;18.80;99.90
5631;DHT22;2837;50.990;7.124;2023-07-13T05:37:08;19.10;99.90
5631;DHT22;2837;50.990;7.124;2023-07-13T05:54:10;19.40;99.90
5631;DHT22;2837;50.990;7.124;2023-07-13T06:11:16;19.70;99.90
5631;DHT22;2837;50.990;7.124;2023-07-13T06:16:08;19.80;99.90
5631;DHT22;2837;50.990;7.124;2023-07-13T06:18:35;19.80;99.90
5631;DHT22;2837;50.990;7.124;2023-07-13T06:21:13;19.80;99.90
5631;DHT22;2837;50.990;7.124;2023-07-13T06:23:39;19.90;99.90
5631;DHT22;2837;50.990;7.124;2023-07-13T06:26:05;19.80;99.90
5631;DHT22;2837;50.990;7.124;2023-07-13T06:30:58;19.80;99.90
5631;DHT22;2837;50.990;7.124;2023-07-13T06:45:43;19.70;99.90
5631;DHT22;2837;50.990;7.124;2023-07-13T07:32:03;20.00;99.90
5631;DHT22;2837;50.990;7.124;2023-07-13T08:11:05;20.30;99.90
5631;DHT22;2837;50.990;7.124;2023-07-13T08:15:58;20.40;99.90
5631;DHT22;2837;50.990;7.124;2023-07-13T08:35:28;20.30;99.90
5631;DHT22;2837;50.990;7.124;2023-07-13T08:40:24;20.40;99.90
5631;DHT22;2837;50.990;7.124;2023-07-13T08:42:54;20.30;99.90
5631;DHT22;2837;50.990;7.124;2023-07-13T08:45:24;20.40;99.90
5631;DHT22;2837;50.990;7.124;2023-07-13T08:48:04;20.40;99.90
5631;DHT22;2837;50.990;7.124;2023-07-13T08:50:33;20.40;99.90
5631;DHT22;2837;50.990;7.124;2023-07-13T08:53:02;20.50;99.90
5631;DHT22;2837;50.990;7.124;2023-07-13T08:55:31;20.50;99.90
5631;DHT22;2837;50.990;7.124;2023-07-13T09:19:30;20.60;99.90
5631;DHT22;2837;50.990;7.124;2023-07-13T09:21:59;20.60;99.90
5631;DHT22;2837;50.990;7.124;2023-07-13T09:27:21;20.70;99.90
5631;DHT22;2837;50.990;7.124;2023-07-13T09:32:39;20.70;99.90
5631;DHT22;2837;50.990;7.124;2023-07-13T09:35:11;20.80;99.90
5631;DHT22;2837;50.990;7.124;2023-07-13T09:40:13;20.80;99.90
5631;DHT22;2837;50.990;7.124;2023-07-13T09:45:07;20.80;99.90
5631;DHT22;2837;50.990;7.124;2023-07-13T09:47:39;20.90;99.90
5631;DHT22;2837;50.990;7.124;2023-07-13T09:50:15;20.90;99.90
5631;DHT22;2837;50.990;7.124;2023-07-13T09:52:49;21.00;99.90
5631;DHT22;2837;50.990;7.124;2023-07-13T09:55:33;21.00;99.90
5631;DHT22;2837;50.990;7.124;2023-07-13T09:58:25;21.00;99.90
5631;DHT22;2837;50.990;7.124;2023-07-13T10:01:01;21.10;99.90
5631;DHT22;2837;50.990;7.124;2023-07-13T10:03:34;21.20;99.90
5631;DHT22;2837;50.990;7.124;2023-07-13T10:06:16;21.20;99.90
5631;DHT22;2837;50.990;7.124;2023-07-13T10:11:23;21.30;99.90
5631;DHT22;2837;50.990;7.124;2023-07-13T10:14:00;21.30;99.90
5631;DHT22;2837;50.990;7.124;2023-07-13T10:16:33;21.30;99.90
5631;DHT22;2837;50.990;7.124;2023-07-13T10:19:02;21.30;99.90
5631;DHT22;2837;50.990;7.124;2023-07-13T10:21:43;21.30;99.90
5631;DHT22;2837;50.990;7.124;2023-07-13T10:24:21;21.40;99.90
5631;DHT22;2837;50.990;7.124;2023-07-13T10:27:15;21.40;99.90
5631;DHT22;2837;50.990;7.124;2023-07-13T10:30:02;21.40;99.90
5631;DHT22;2837;50.990;7.124;2023-07-13T10:37:29;21.50;99.90
5631;DHT22;2837;50.990;7.124;2023-07-13T10:39:57;21.50;99.90
5631;DHT22;2837;50.990;7.124;2023-07-13T10:42:32;21.60;99.90
5631;DHT22;2837;50.990;7.124;2023-07-13T10:45:00;21.60;99.90
5631;DHT22;2837;50.990;7.124;2023-07-13T10:47:26;21.60;99.90
5631;DHT22;2837;50.990;7.124;2023-07-13T10:49:56;21.70;99.90
5631;DHT22;2837;50.990;7.124;2023-07-13T10:52:44;21.60;99.90
5631;DHT22;2837;50.990;7.124;2023-07-13T10:55:37;21.60;99.90
5631;DHT22;2837;50.990;7.124;2023-07-13T10:58:13;21.60;99.90
5631;DHT22;2837;50.990;7.124;2023-07-13T11:00:51;21.60;99.90
5631;DHT22;2837;50.990;7.124;2023-07-13T11:03:20;21.60;99.90
5631;DHT22;2837;50.990;7.124;2023-07-13T11:05:51;21.70;99.90
5631;DHT22;2837;50.990;7.124;2023-07-13T11:08:36;21.70;99.90
5631;DHT22;2837;50.990;7.124;2023-07-13T11:11:03;21.70;99.90
5631;DHT22;2837;50.990;7.124;2023-07-13T11:13:56;21.70;99.90
5631;DHT22;2837;50.990;7.124;2023-07-13T11:24:15;21.80;99.90
5631;DHT22;2837;50.990;7.124;2023-07-13T11:31:52;21.80;99.90
5631;DHT22;2837;50.990;7.124;2023-07-13T11:34:26;21.80;99.90
5631;DHT22;2837;50.990;7.124;2023-07-13T11:39:30;21.80;99.90
5631;DHT22;2837;50.990;7.124;2023-07-13T11:42:02;21.80;99.90
5631;DHT22;2837;50.990;7.124;2023-07-13T11:44:30;21.70;99.90
5631;DHT22;2837;50.990;7.124;2023-07-13T11:46:57;21.70;99.90
5631;DHT22;2837;50.990;7.124;2023-07-13T11:49:29;21.80;99.90
5631;DHT22;2837;50.990;7.124;2023-07-13T11:54:28;21.80;99.90
5631;DHT22;2837;50.990;7.124;2023-07-13T11:56:58;21.90;99.90
5631;DHT22;2837;50.990;7.124;2023-07-13T12:01:54;21.90;99.90
5631;DHT22;2837;50.990;7.124;2023-07-13T12:04:26;21.90;99.90
5631;DHT22;2837;50.990;7.124;2023-07-13T12:07:03;21.80;99.90
5631;DHT22;2837;50.990;7.124;2023-07-13T12:11:57;22.00;99.90
5631;DHT22;2837;50.990;7.124;2023-07-13T12:19:24;22.10;99.90
5631;DHT22;2837;50.990;7.124;2023-07-13T12:21:52;22.10;99.90
5631;DHT22;2837;50.990;7.124;2023-07-13T12:24:20;22.20;99.90
5631;DHT22;2837;50.990;7.124;2023-07-13T12:26:53;22.10;99.90
5631;DHT22;2837;50.990;7.124;2023-07-13T12:31:48;22.10;99.90
5631;DHT22;2837;50.990;7.124;2023-07-13T12:34:19;22.10;99.90
5631;DHT22;2837;50.990;7.124;2023-07-13T12:39:19;22.10;99.90
5631;DHT22;2837;50.990;7.124;2023-07-13T12:41:47;22.10;99.90
5631;DHT22;2837;50.990;7.124;2023-07-13T12:44:27;22.10;99.90
5631;DHT22;2837;50.990;7.124;2023-07-13T12:47:02;22.20;99.90
5631;DHT22;2837;50.990;7.124;2023-07-13T12:49:31;22.20;99.90
5631;DHT22;2837;50.990;7.124;2023-07-13T12:52:02;22.20;99.90
5631;DHT22;2837;50.990;7.124;2023-07-13T12:54:28;22.20;99.90
5631;DHT22;2837;50.990;7.124;2023-07-13T12:56:55;22.20;99.90
5631;DHT22;2837;50.990;7.124;2023-07-13T12:59:27;22.20;99.90
5631;DHT22;2837;50.990;7.124;2023-07-13T13:09:15;22.30;99.90
5631;DHT22;2837;50.990;7.124;2023-07-13T13:19:25;22.40;99.90
5631;DHT22;2837;50.990;7.124;2023-07-13T13:21:52;22.40;99.90
5631;DHT22;2837;50.990;7.124;2023-07-13T13:24:21;22.50;99.90
5631;DHT22;2837;50.990;7.124;2023-07-13T13:26:48;22.50;99.90
5631;DHT22;2837;50.990;7.124;2023-07-13T13:29:19;22.40;99.90
5631;DHT22;2837;50.990;7.124;2023-07-13T13:34:15;22.50;99.90
5631;DHT22;2837;50.990;7.124;2023-07-13T13:36:41;22.50;99.90
5631;DHT22;2837;50.990;7.124;2023-07-13T13:39:22;22.50;99.90
5631;DHT22;2837;50.990;7.124;2023-07-13T13:41:50;22.60;99.90
5631;DHT22;2837;50.990;7.124;2023-07-13T13:44:17;22.60;99.90
5631;DHT22;2837;50.990;7.124;2023-07-13T13:46:45;22.60;99.90
5631;DHT22;2837;50.990;7.124;2023-07-13T13:49:14;22.50;99.90
5631;DHT22;2837;50.990;7.124;2023-07-13T13:54:14;22.60;99.90
5631;DHT22;2837;50.990;7.124;2023-07-13T13:56:42;22.50;99.90
5631;DHT22;2837;50.990;7.124;2023-07-13T14:01:34;22.50;99.90
5631;DHT22;2837;50.990;7.124;2023-07-13T14:11:21;22.50;99.90
5631;DHT22;2837;50.990;7.124;2023-07-13T14:13:53;22.50;92.50
5631;DHT22;2837;50.990;7.124;2023-07-13T14:16:21;22.50;97.10
5631;DHT22;2837;50.990;7.124;2023-07-13T14:18:48;22.50;94.30
5631;DHT22;2837;50.990;7.124;2023-07-13T14:21:19;22.50;99.90
5631;DHT22;2837;50.990;7.124;2023-07-13T14:23:47;22.50;99.90
5631;DHT22;2837;50.990;7.124;2023-07-13T14:26:20;22.50;99.90
5631;DHT22;2837;50.990;7.124;2023-07-13T14:28:48;22.60;99.90
5631;DHT22;2837;50.990;7.124;2023-07-13T14:31:16;22.70;99.90
5631;DHT22;2837;50.990;7.124;2023-07-13T14:36:32;22.70;99.90
5631;DHT22;2837;50.990;7.124;2023-07-13T14:39:00;22.70;99.90
5631;DHT22;2837;50.990;7.124;2023-07-13T14:46:32;22.80;99.90
5631;DHT22;2837;50.990;7.124;2023-07-13T14:49:04;22.80;99.90
5631;DHT22;2837;50.990;7.124;2023-07-13T14:54:02;22.80;99.90
5631;DHT22;2837;50.990;7.124;2023-07-13T15:03:49;22.90;99.90
5631;DHT22;2837;50.990;7.124;2023-07-13T15:11:09;22.60;99.90
5631;DHT22;2837;50.990;7.124;2023-07-13T15:13:38;22.60;95.40
5631;DHT22;2837;50.990;7.124;2023-07-13T15:25:54;22.60;98.50
5631;DHT22;2837;50.990;7.124;2023-07-13T15:30:47;22.60;99.90
5631;DHT22;2837;50.990;7.124;2023-07-13T15:33:33;22.60;99.90
5631;DHT22;2837;50.990;7.124;2023-07-13T15:38:30;22.60;99.90
5631;DHT22;2837;50.990;7.124;2023-07-13T15:43:23;22.60;88.80
5631;DHT22;2837;50.990;7.124;2023-07-13T15:48:26;22.60;93.90
5631;DHT22;2837;50.990;7.124;2023-07-13T15:50:54;22.60;93.50
5631;DHT22;2837;50.990;7.124;2023-07-13T15:53:24;22.60;92.10
5631;DHT22;2837;50.990;7.124;2023-07-13T16:08:03;22.50;92.90
5631;DHT22;2837;50.990;7.124;2023-07-13T16:10:34;22.50;93.80
5631;DHT22;2837;50.990;7.124;2023-07-13T16:13:01;22.40;99.90
5631;DHT22;2837;50.990;7.124;2023-07-13T16:22:51;22.10;99.90
5631;DHT22;2837;50.990;7.124;2023-07-13T16:25:21;22.10;99.90
5631;DHT22;2837;50.990;7.124;2023-07-13T16:27:50;22.00;99.90
5631;DHT22;2837;50.990;7.124;2023-07-13T16:30:20;22.00;99.90
5631;DHT22;2837;50.990;7.124;2023-07-13T16:35:22;22.00;99.90
5631;DHT22;2837;50.990;7.124;2023-07-13T16:50:30;21.90;99.90
5631;DHT22;2837;50.990;7.124;2023-07-13T16:52:56;21.90;99.90
5631;DHT22;2837;50.990;7.124;2023-07-13T16:57:57;21.80;99.90
5631;DHT22;2837;50.990;7.124;2023-07-13T17:00:30;21.80;99.90
5631;DHT22;2837;50.990;7.124;2023-07-13T17:02:58;21.80;99.90
5631;DHT22;2837;50.990;7.124;2023-07-13T17:05:41;21.80;99.90
5631;DHT22;2837;50.990;7.124;2023-07-13T17:08:15;21.80;99.90
5631;DHT22;2837;50.990;7.124;2023-07-13T17:10:42;21.70;99.90
5631;DHT22;2837;50.990;7.124;2023-07-13T17:13:11;21.70;99.90
5631;DHT22;2837;50.990;7.124;2023-07-13T17:15:37;21.70;99.90
5631;DHT22;2837;50.990;7.124;2023-07-13T17:18:04;21.70;99.90
5631;DHT22;2837;50.990;7.124;2023-07-13T17:20:35;21.70;99.90
5631;DHT22;2837;50.990;7.124;2023-07-13T17:23:19;21.70;99.90
5631;DHT22;2837;50.990;7.124;2023-07-13T17:25:46;21.70;99.90
5631;DHT22;2837;50.990;7.124;2023-07-13T17:28:12;21.70;99.90
5631;DHT22;2837;50.990;7.124;2023-07-13T17:30:43;21.70;99.90
5631;DHT22;2837;50.990;7.124;2023-07-13T17:50:32;21.60;99.90
5631;DHT22;2837;50.990;7.124;2023-07-13T17:53:11;21.60;99.90
5631;DHT22;2837;50.990;7.124;2023-07-13T18:00:32;21.50;99.90
5631;DHT22;2837;50.990;7.124;2023-07-13T18:03:04;21.50;99.90
5631;DHT22;2837;50.990;7.124;2023-07-13T18:12:51;21.40;99.90
5631;DHT22;2837;50.990;7.124;2023-07-13T18:15:18;21.30;99.90
5631;DHT22;2837;50.990;7.124;2023-07-13T18:17:49;21.30;99.90
5631;DHT22;2837;50.990;7.124;2023-07-13T18:20:21;21.20;99.90
5631;DHT22;2837;50.990;7.124;2023-07-13T18:22:53;21.20;99.90
5631;DHT22;2837;50.990;7.124;2023-07-13T18:25:21;21.20;99.90
5631;DHT22;2837;50.990;7.124;2023-07-13T18:30:15;21.20;99.90
5631;DHT22;2837;50.990;7.124;2023-07-13T18:32:44;21.10;99.90
5631;DHT22;2837;50.990;7.124;2023-07-13T18:35:19;21.10;99.90
5631;DHT22;2837;50.990;7.124;2023-07-13T18:40:15;21.20;99.90
5631;DHT22;2837;50.990;7.124;2023-07-13T18:42:42;21.20;99.90
5631;DHT22;2837;50.990;7.124;2023-07-13T18:45:11;21.20;99.90
5631;DHT22;2837;50.990;7.124;2023-07-13T18:47:40;21.20;99.90
5631;DHT22;2837;50.990;7.124;2023-07-13T18:50:18;21.20;99.90
5631;DHT22;2837;50.990;7.124;2023-07-13T18:52:45;21.20;99.90
5631;DHT22;2837;50.990;7.124;2023-07-13T18:55:20;21.10;99.90
5631;DHT22;2837;50.990;7.124;2023-07-13T19:00:15;21.20;99.90
5631;DHT22;2837;50.990;7.124;2023-07-13T19:02:42;21.10;99.90
5631;DHT22;2837;50.990;7.124;2023-07-13T19:05:21;21.20;99.90
5631;DHT22;2837;50.990;7.124;2023-07-13T19:07:47;21.20;99.90
5631;DHT22;2837;50.990;7.124;2023-07-13T19:10:18;21.20;99.90
5631;DHT22;2837;50.990;7.124;2023-07-13T19:12:46;21.20;99.90
5631;DHT22;2837;50.990;7.124;2023-07-13T19:15:24;21.10;99.90
5631;DHT22;2837;50.990;7.124;2023-07-13T19:17:51;21.10;99.90
5631;DHT22;2837;50.990;7.124;2023-07-13T19:20:18;21.10;99.90
5631;DHT22;2837;50.990;7.124;2023-07-13T19:27:46;21.10;99.90
5631;DHT22;2837;50.990;7.124;2023-07-13T19:30:13;21.10;99.90
5631;DHT22;2837;50.990;7.124;2023-07-13T19:32:41;21.10;99.90
5631;DHT22;2837;50.990;7.124;2023-07-13T19:35:08;21.10;99.90
5631;DHT22;2837;50.990;7.124;2023-07-13T19:37:34;21.10;99.90
5631;DHT22;2837;50.990;7.124;2023-07-13T19:40:03;21.10;99.90
5631;DHT22;2837;50.990;7.124;2023-07-13T19:44:59;21.10;99.90
5631;DHT22;2837;50.990;7.124;2023-07-13T19:47:25;21.00;99.90
5631;DHT22;2837;50.990;7.124;2023-07-13T19:52:20;21.00;99.90
5631;DHT22;2837;50.990;7.124;2023-07-13T19:54:51;21.00;99.90
5631;DHT22;2837;50.990;7.124;2023-07-13T19:57:20;21.00;99.90
5631;DHT22;2837;50.990;7.124;2023-07-13T20:07:21;21.00;99.90
5631;DHT22;2837;50.990;7.124;2023-07-13T20:09:47;21.00;99.90
5631;DHT22;2837;50.990;7.124;2023-07-13T20:12:24;21.00;99.90
5631;DHT22;2837;50.990;7.124;2023-07-13T20:17:38;20.90;99.90
5631;DHT22;2837;50.990;7.124;2023-07-13T20:25:35;20.90;99.90
5631;DHT22;2837;50.990;7.124;2023-07-13T20:30:31;20.80;99.90
5631;DHT22;2837;50.990;7.124;2023-07-13T20:33:00;20.80;99.90
5631;DHT22;2837;50.990;7.124;2023-07-13T20:35:29;20.80;99.90
5631;DHT22;2837;50.990;7.124;2023-07-13T20:37:56;20.80;99.90
5631;DHT22;2837;50.990;7.124;2023-07-13T20:40:25;20.80;99.90
5631;DHT22;2837;50.990;7.124;2023-07-13T20:47:46;20.80;99.90
5631;DHT22;2837;50.990;7.124;2023-07-13T20:50:17;20.80;99.90
5631;DHT22;2837;50.990;7.124;2023-07-13T20:52:43;20.80;99.90
5631;DHT22;2837;50.990;7.124;2023-07-13T20:55:16;20.80;99.90
